Time;durP1;ratioP1;P1;durP2;ratioP2;P2;SDS_P1;SDS_P2;PMS_P1;PMS_P2;Temp;Humidity;BMP_temperature;BMP_pressure;BME280_temperature;BME280_humidity;BME280_pressure;Samples;Min_cycle;Max_cycle;Signal;HPM_P1;HPM_P2
2023/04/23 00:02:25;;;;;;;4.90;4.50;;;;;;;;;;8285898;28;20358;-76
2023/04/23 00:06:26;;;;;;;4.72;4.32;;;;;;;;;;8284438;28;20069;-75
2023/04/23 00:10:26;;;;;;;4.20;3.80;;;;;;;;;;8289869;28;20044;-75
2023/04/23 00:14:27;;;;;;;4.00;3.30;;;;;;;;;;8292091;28;20028;-75
2023/04/23 00:18:28;;;;;;;6.47;3.72;;;;;;;;;;8286165;28;20140;-76
2023/04/23 00:22:28;;;;;;;3.53;3.22;;;;;;;;;;8284848;28;20036;-75
2023/04/23 00:26:28;;;;;;;2.95;2.75;;;;;;;;;;8283373;28;20454;-75
2023/04/23 00:30:29;;;;;;;2.83;2.40;;;;;;;;;;8283492;28;20128;-75
2023/04/23 00:34:29;;;;;;;3.22;2.40;;;;;;;;;;8286979;28;20808;-75
2023/04/23 00:38:29;;;;;;;3.60;2.20;;;;;;;;;;8281055;28;20094;-75
2023/04/23 00:42:29;;;;;;;2.67;2.22;;;;;;;;;;8282840;28;20026;-75
2023/04/23 00:46:29;;;;;;;2.53;2.30;;;;;;;;;;8281033;28;20037;-75
2023/04/23 00:50:30;;;;;;;2.45;2.25;;;;;;;;;;8282581;28;20028;-75
2023/04/23 00:54:30;;;;;;;4.75;3.35;;;;;;;;;;8284158;28;20029;-75
2023/04/23 00:58:30;;;;;;;3.40;3.20;;;;;;;;;;8281842;28;20033;-75
2023/04/23 01:02:31;;;;;;;5.22;3.33;;;;;;;;;;8280105;28;20148;-76
2023/04/23 01:06:32;;;;;;;4.43;3.50;;;;;;;;;;8280157;28;20112;-75
2023/04/23 01:10:32;;;;;;;6.20;3.88;;;;;;;;;;8279128;28;20496;-75
2023/04/23 01:14:33;;;;;;;5.70;3.80;;;;;;;;;;8278397;28;20033;-75
2023/04/23 01:18:33;;;;;;;4.07;3.72;;;;;;;;;;8279114;28;20276;-75
2023/04/23 01:22:35;;;;;;;4.83;3.80;;;;;;;;;;8280328;28;20021;-75
2023/04/23 01:26:35;;;;;;;4.03;3.63;;;;;;;;;;8296857;28;20029;-75
2023/04/23 01:30:36;;;;;;;7.28;3.78;;;;;;;;;;8282098;28;20095;-75
2023/04/23 01:34:37;;;;;;;3.80;3.50;;;;;;;;;;8274835;28;20545;-75
2023/04/23 01:38:37;;;;;;;5.20;4.25;;;;;;;;;;8279881;28;20057;-75
2023/04/23 01:42:38;;;;;;;7.57;4.28;;;;;;;;;;8283365;28;20569;-75
2023/04/23 01:46:38;;;;;;;4.03;3.53;;;;;;;;;;8280955;28;20083;-75
2023/04/23 01:50:38;;;;;;;3.95;3.58;;;;;;;;;;8288368;28;20049;-74
2023/04/23 01:54:38;;;;;;;4.05;3.63;;;;;;;;;;8281184;28;20052;-75
2023/04/23 01:58:39;;;;;;;4.15;3.25;;;;;;;;;;8280055;28;20078;-75
2023/04/23 02:02:40;;;;;;;4.15;3.70;;;;;;;;;;8285555;28;20076;-75
2023/04/23 02:06:42;;;;;;;4.25;3.28;;;;;;;;;;8286299;28;20487;-75
2023/04/23 02:10:42;;;;;;;4.70;3.72;;;;;;;;;;8289025;28;20223;-75
2023/04/23 02:14:42;;;;;;;4.43;3.40;;;;;;;;;;8290217;28;20044;-75
2023/04/23 02:18:42;;;;;;;5.30;4.05;;;;;;;;;;8288500;28;20286;-75
2023/04/23 02:22:43;;;;;;;3.78;3.30;;;;;;;;;;8290017;28;20033;-75
2023/04/23 02:26:43;;;;;;;3.30;3.00;;;;;;;;;;8291494;28;20032;-75
2023/04/23 02:30:46;;;;;;;3.30;3.00;;;;;;;;;;8287713;28;20076;-75
2023/04/23 02:34:46;;;;;;;3.13;2.83;;;;;;;;;;8290147;28;20682;-75
2023/04/23 02:38:49;;;;;;;3.38;2.58;;;;;;;;;;8287056;28;20040;-77
2023/04/23 02:42:50;;;;;;;3.20;2.90;;;;;;;;;;8281638;28;20030;-75
2023/04/23 02:46:51;;;;;;;3.00;2.80;;;;;;;;;;8293173;28;20117;-75
2023/04/23 02:50:51;;;;;;;3.38;2.70;;;;;;;;;;8285641;28;20128;-75
2023/04/23 02:54:51;;;;;;;4.07;2.78;;;;;;;;;;8288139;28;20052;-75
2023/04/23 02:58:52;;;;;;;2.97;2.70;;;;;;;;;;8288183;28;20107;-74
2023/04/23 03:02:52;;;;;;;3.22;2.97;;;;;;;;;;8286049;28;20042;-75
2023/04/23 03:06:52;;;;;;;3.38;3.10;;;;;;;;;;8290684;28;20021;-75
2023/04/23 03:10:52;;;;;;;3.07;2.77;;;;;;;;;;8285241;28;20017;-74
2023/04/23 03:14:52;;;;;;;4.40;3.38;;;;;;;;;;8285738;28;20018;-74
2023/04/23 03:18:53;;;;;;;3.60;2.90;;;;;;;;;;8283802;28;20041;-74
2023/04/23 03:22:53;;;;;;;3.58;3.28;;;;;;;;;;8285486;28;20021;-75
2023/04/23 03:26:53;;;;;;;3.88;3.42;;;;;;;;;;8298255;28;20117;-74
2023/04/23 03:30:53;;;;;;;3.42;3.13;;;;;;;;;;8278614;28;20659;-75
2023/04/23 03:34:53;;;;;;;4.25;3.45;;;;;;;;;;8281521;28;20049;-75
2023/04/23 03:38:53;;;;;;;3.50;3.20;;;;;;;;;;8287492;28;20030;-75
2023/04/23 03:42:53;;;;;;;4.75;3.05;;;;;;;;;;8284709;28;20504;-75
2023/04/23 03:46:54;;;;;;;3.45;2.70;;;;;;;;;;8284863;28;20029;-75
2023/04/23 03:50:54;;;;;;;3.95;3.15;;;;;;;;;;8285853;28;20021;-75
2023/04/23 03:54:54;;;;;;;5.63;3.00;;;;;;;;;;8285121;28;20021;-75
2023/04/23 03:58:54;;;;;;;3.28;2.90;;;;;;;;;;8285525;28;20526;-75
2023/04/23 04:02:54;;;;;;;4.03;3.50;;;;;;;;;;8285826;28;20709;-76
2023/04/23 04:06:55;;;;;;;3.53;3.30;;;;;;;;;;8280282;28;20032;-74
2023/04/23 04:10:55;;;;;;;4.80;4.20;;;;;;;;;;8286992;28;20021;-76
2023/04/23 04:14:55;;;;;;;5.15;4.10;;;;;;;;;;8281240;28;20110;-74
2023/04/23 04:18:56;;;;;;;4.80;4.40;;;;;;;;;;8282709;28;20041;-74
2023/04/23 04:22:56;;;;;;;4.90;4.10;;;;;;;;;;8282916;28;20105;-75
2023/04/23 04:26:57;;;;;;;5.80;4.28;;;;;;;;;;8286205;28;20101;-74
2023/04/23 04:30:59;;;;;;;4.72;4.28;;;;;;;;;;8283930;28;20055;-74
2023/04/23 04:34:59;;;;;;;7.93;4.50;;;;;;;;;;8285492;28;20474;-74
2023/04/23 04:38:59;;;;;;;4.10;3.70;;;;;;;;;;8283326;28;20029;-74
2023/04/23 04:43:00;;;;;;;4.30;3.80;;;;;;;;;;8282013;28;20132;-74
2023/04/23 04:47:00;;;;;;;5.47;3.83;;;;;;;;;;8285651;28;20033;-74
2023/04/23 04:51:00;;;;;;;4.28;3.60;;;;;;;;;;8286897;28;20027;-74
2023/04/23 04:55:00;;;;;;;3.67;3.38;;;;;;;;;;8283195;28;20017;-74
2023/04/23 04:59:01;;;;;;;5.22;3.55;;;;;;;;;;8282282;28;20040;-74
2023/04/23 05:03:01;;;;;;;7.38;4.32;;;;;;;;;;8283042;28;20908;-74
2023/04/23 05:07:02;;;;;;;6.00;4.63;;;;;;;;;;8283663;28;20032;-74
2023/04/23 05:11:02;;;;;;;4.93;4.35;;;;;;;;;;8284096;28;20146;-75
2023/04/23 05:15:03;;;;;;;4.07;3.78;;;;;;;;;;8280090;28;20037;-76
2023/04/23 05:19:03;;;;;;;5.55;4.38;;;;;;;;;;8284154;28;20025;-75
2023/04/23 05:23:03;;;;;;;4.22;3.83;;;;;;;;;;8282073;28;20018;-75
2023/04/23 05:27:03;;;;;;;4.88;3.80;;;;;;;;;;8281877;28;20033;-75
2023/04/23 05:31:04;;;;;;;3.88;3.17;;;;;;;;;;8280157;28;21066;-75
2023/04/23 05:35:05;;;;;;;5.90;2.83;;;;;;;;;;8282020;28;20187;-75
2023/04/23 05:39:05;;;;;;;3.35;3.05;;;;;;;;;;8281873;28;20115;-75
2023/04/23 05:43:05;;;;;;;3.88;3.35;;;;;;;;;;8282386;28;20025;-76
2023/04/23 05:47:05;;;;;;;3.53;3.05;;;;;;;;;;8281412;28;20030;-75
2023/04/23 05:51:05;;;;;;;3.97;3.28;;;;;;;;;;8274684;28;20029;-75
2023/04/23 05:55:07;;;;;;;4.53;3.20;;;;;;;;;;8283557;28;20028;-75
2023/04/23 05:59:07;;;;;;;3.45;2.70;;;;;;;;;;8297168;28;20087;-75
2023/04/23 06:03:07;;;;;;;2.80;2.60;;;;;;;;;;8280535;28;20140;-75
2023/04/23 06:07:07;;;;;;;2.85;2.65;;;;;;;;;;8283225;28;20025;-76
2023/04/23 06:11:07;;;;;;;2.80;2.50;;;;;;;;;;8276194;28;20108;-75
2023/04/23 06:15:08;;;;;;;5.03;2.53;;;;;;;;;;8278864;28;20458;-76
2023/04/23 06:19:09;;;;;;;2.25;2.05;;;;;;;;;;8280871;28;20025;-75
2023/04/23 06:23:09;;;;;;;4.43;2.20;;;;;;;;;;8279582;28;20025;-75
2023/04/23 06:27:10;;;;;;;2.50;2.30;;;;;;;;;;8277891;28;20026;-76
2023/04/23 06:31:11;;;;;;;6.28;2.08;;;;;;;;;;8277767;28;20045;-75
2023/04/23 06:35:11;;;;;;;3.38;2.20;;;;;;;;;;8277792;28;20029;-76
2023/04/23 06:39:11;;;;;;;2.85;2.20;;;;;;;;;;8276967;28;20021;-79
2023/04/23 06:43:13;;;;;;;2.22;2.03;;;;;;;;;;8280185;28;20121;-83
2023/04/23 06:47:13;;;;;;;4.80;2.38;;;;;;;;;;8294328;28;20029;-82
2023/04/23 06:51:13;;;;;;;3.67;2.20;;;;;;;;;;8289075;28;20283;-82
2023/04/23 06:55:13;;;;;;;2.53;2.30;;;;;;;;;;8291924;28;20029;-83
2023/04/23 06:59:14;;;;;;;3.97;2.35;;;;;;;;;;8287300;28;21940;-83
2023/04/23 07:03:14;;;;;;;2.22;2.03;;;;;;;;;;8281717;28;20036;-83
2023/04/23 07:07:15;;;;;;;2.00;1.67;;;;;;;;;;8295702;28;20029;-84
2023/04/23 07:11:18;;;;;;;2.45;2.05;;;;;;;;;;8290689;28;20161;-82
2023/04/23 07:15:18;;;;;;;3.15;1.85;;;;;;;;;;8289527;28;20148;-83
2023/04/23 07:19:18;;;;;;;2.55;2.05;;;;;;;;;;8287954;28;20203;-81
2023/04/23 07:23:19;;;;;;;2.53;2.07;;;;;;;;;;8287259;28;20099;-82
2023/04/23 07:27:19;;;;;;;1.70;1.60;;;;;;;;;;8284773;28;20602;-82
2023/04/23 07:31:20;;;;;;;3.45;1.60;;;;;;;;;;8284421;28;20046;-83
2023/04/23 07:35:20;;;;;;;3.55;1.80;;;;;;;;;;8279628;28;20040;-82
2023/04/23 07:39:21;;;;;;;1.70;1.60;;;;;;;;;;8285210;28;20033;-82
2023/04/23 07:43:21;;;;;;;2.22;1.73;;;;;;;;;;8289721;28;20423;-82
2023/04/23 07:47:21;;;;;;;3.17;1.98;;;;;;;;;;8285559;28;20041;-83
2023/04/23 07:51:25;;;;;;;3.70;1.98;;;;;;;;;;8290049;28;20025;-82
2023/04/23 07:55:25;;;;;;;2.10;1.50;;;;;;;;;;8286892;28;20956;-83
2023/04/23 07:59:25;;;;;;;1.88;1.60;;;;;;;;;;8287940;28;20700;-83
2023/04/23 08:03:27;;;;;;;1.88;1.40;;;;;;;;;;8290470;28;20037;-83
2023/04/23 08:07:28;;;;;;;1.67;1.40;;;;;;;;;;8290159;28;20660;-83
2023/04/23 08:11:28;;;;;;;2.10;1.60;;;;;;;;;;8287344;28;20051;-83
2023/04/23 08:15:29;;;;;;;2.45;1.50;;;;;;;;;;8289947;28;20037;-83
2023/04/23 08:19:32;;;;;;;2.00;1.50;;;;;;;;;;8290885;28;20361;-84
2023/04/23 08:23:32;;;;;;;;;;;;;;;;;;8288675;28;20390;-83
2023/04/23 08:27:32;;;;;;;2.67;1.38;;;;;;;;;;8287243;28;19920;-83
2023/04/23 08:31:33;;;;;;;2.17;1.38;;;;;;;;;;8286266;28;20128;-82
2023/04/23 08:35:33;;;;;;;2.30;1.40;;;;;;;;;;8287031;28;20037;-83
2023/04/23 08:39:33;;;;;;;2.47;1.50;;;;;;;;;;8285562;28;20980;-83
2023/04/23 08:43:42;;;;;;;1.40;1.20;;;;;;;;;;8286263;28;20678;-82
2023/04/23 08:47:42;;;;;;;2.00;1.58;;;;;;;;;;8291442;28;20030;-83
2023/04/23 08:51:47;;;;;;;3.47;1.40;;;;;;;;;;8288465;28;20432;-83
2023/04/23 08:55:50;;;;;;;2.13;1.15;;;;;;;;;;8286670;28;20026;-82
2023/04/23 08:59:54;;;;;;;1.80;1.35;;;;;;;;;;8284790;28;20032;-82
2023/04/23 09:03:54;;;;;;;2.78;1.30;;;;;;;;;;8286383;28;20034;-82
2023/04/23 09:07:55;;;;;;;1.53;1.30;;;;;;;;;;8276348;28;20095;-82
2023/04/23 09:11:56;;;;;;;2.78;1.40;;;;;;;;;;8281984;28;20539;-81
2023/04/23 09:15:56;;;;;;;2.97;1.30;;;;;;;;;;8278280;28;20038;-81
2023/04/23 09:19:57;;;;;;;1.80;1.20;;;;;;;;;;8283382;28;20017;-81
2023/04/23 09:23:57;;;;;;;1.33;1.23;;;;;;;;;;8285639;28;20029;-80
2023/04/23 09:27:57;;;;;;;1.50;1.20;;;;;;;;;;8282869;28;20639;-81
2023/04/23 09:32:08;;;;;;;1.42;1.30;;;;;;;;;;8286095;28;20029;-81
2023/04/23 09:36:10;;;;;;;4.03;1.45;;;;;;;;;;8283144;28;20022;-81
2023/04/23 09:40:12;;;;;;;1.33;1.20;;;;;;;;;;8280648;28;20633;-81
2023/04/23 09:44:21;;;;;;;1.60;1.30;;;;;;;;;;8280093;28;20164;-81
2023/04/23 09:48:24;;;;;;;1.33;1.20;;;;;;;;;;8280536;28;20288;-82
2023/04/23 09:52:25;;;;;;;2.30;1.40;;;;;;;;;;8283646;28;20783;-81
2023/04/23 09:56:25;;;;;;;1.70;1.35;;;;;;;;;;8284330;28;20545;-82
2023/04/23 10:00:29;;;;;;;2.07;1.20;;;;;;;;;;8276907;28;20042;-82
2023/04/23 10:04:29;;;;;;;1.58;1.30;;;;;;;;;;8297852;28;20035;-81
2023/04/23 10:08:30;;;;;;;3.78;1.30;;;;;;;;;;8279209;28;20112;-80
2023/04/23 10:12:30;;;;;;;2.40;1.40;;;;;;;;;;8279186;28;20478;-81
2023/04/23 10:16:31;;;;;;;2.65;2.00;;;;;;;;;;8301104;28;20038;-80
2023/04/23 10:20:33;;;;;;;1.40;1.17;;;;;;;;;;8281934;28;20029;-81
2023/04/23 10:24:34;;;;;;;2.33;1.70;;;;;;;;;;8279629;28;20021;-81
2023/04/23 10:28:37;;;;;;;1.38;1.23;;;;;;;;;;8285587;28;20800;-81
2023/04/23 10:32:38;;;;;;;1.38;1.10;;;;;;;;;;8283367;28;20022;-81
2023/04/23 10:36:38;;;;;;;2.97;1.30;;;;;;;;;;8283467;28;20017;-81
2023/04/23 10:40:39;;;;;;;3.72;1.48;;;;;;;;;;8284747;28;20045;-79
2023/04/23 10:44:41;;;;;;;2.55;1.10;;;;;;;;;;8277120;28;20021;-79
2023/04/23 10:48:50;;;;;;;4.13;1.50;;;;;;;;;;8285238;28;20037;-81
2023/04/23 10:52:52;;;;;;;4.93;1.42;;;;;;;;;;8283775;28;20025;-80
2023/04/23 10:56:56;;;;;;;1.15;1.05;;;;;;;;;;8284476;28;20033;-80
2023/04/23 11:00:57;;;;;;;1.77;1.30;;;;;;;;;;8298375;28;20029;-80
2023/04/23 11:04:57;;;;;;;2.33;1.42;;;;;;;;;;8285048;28;20025;-81
2023/04/23 11:08:57;;;;;;;2.58;1.80;;;;;;;;;;8283259;28;20026;-80
2023/04/23 11:13:18;;;;;;;2.75;1.20;;;;;;;;;;8285349;28;20936;-79
2023/04/23 11:17:21;;;;;;;2.35;1.42;;;;;;;;;;8285460;28;20038;-80
2023/04/23 11:21:21;;;;;;;;;;;;;;;;;;8284253;28;20110;-79
2023/04/23 11:25:22;;;;;;;1.20;1.10;;;;;;;;;;8291756;28;20404;-81
2023/04/23 11:29:24;;;;;;;1.92;1.02;;;;;;;;;;8282676;28;20042;-80
2023/04/23 11:33:24;;;;;;;2.08;1.10;;;;;;;;;;8284378;28;20545;-80
2023/04/23 11:37:24;;;;;;;1.58;1.20;;;;;;;;;;8286227;28;20075;-81
2023/04/23 11:41:25;;;;;;;12.10;5.72;;;;;;;;;;8283365;28;20080;-81
2023/04/23 11:45:26;;;;;;;4.57;2.65;;;;;;;;;;8286569;28;20033;-82
2023/04/23 11:49:26;;;;;;;2.22;1.20;;;;;;;;;;8284101;28;20753;-81
2023/04/23 11:53:27;;;;;;;2.87;1.43;;;;;;;;;;8286621;28;20025;-80
2023/04/23 11:57:27;;;;;;;3.30;1.70;;;;;;;;;;8286224;28;20279;-80
2023/04/23 12:01:37;;;;;;;1.00;1.00;;;;;;;;;;8281258;28;20981;-80
2023/04/23 12:05:42;;;;;;;2.35;1.10;;;;;;;;;;8299672;28;20790;-80
2023/04/23 12:09:44;;;;;;;2.20;1.17;;;;;;;;;;8300003;28;20505;-80
2023/04/23 12:13:44;;;;;;;3.20;2.00;;;;;;;;;;8286634;28;21392;-80
2023/04/23 12:17:49;;;;;;;2.15;1.52;;;;;;;;;;8278869;28;20025;-81
2023/04/23 12:21:53;;;;;;;1.58;1.13;;;;;;;;;;8287788;28;20057;-81
2023/04/23 12:25:53;;;;;;;2.35;1.30;;;;;;;;;;8300992;28;20776;-80
2023/04/23 12:30:00;;;;;;;1.55;1.00;;;;;;;;;;8286405;28;20086;-81
2023/04/23 12:34:01;;;;;;;2.15;1.27;;;;;;;;;;8285209;28;20120;-80
2023/04/23 12:38:03;;;;;;;1.65;1.20;;;;;;;;;;8285690;28;20036;-81
2023/04/23 12:42:05;;;;;;;2.60;1.30;;;;;;;;;;8285568;28;20036;-81
2023/04/23 12:46:05;;;;;;;3.60;1.42;;;;;;;;;;8284971;28;20144;-80
2023/04/23 12:50:07;;;;;;;3.95;1.10;;;;;;;;;;8298466;28;20110;-80
2023/04/23 12:54:07;;;;;;;1.73;1.30;;;;;;;;;;8284256;28;20029;-80
2023/04/23 12:58:07;;;;;;;2.25;1.10;;;;;;;;;;8281956;28;20030;-80
2023/04/23 13:02:08;;;;;;;2.10;1.10;;;;;;;;;;8284093;28;20037;-80
2023/04/23 13:06:08;;;;;;;3.70;1.27;;;;;;;;;;8281657;28;20948;-80
2023/04/23 13:10:08;;;;;;;2.72;1.27;;;;;;;;;;8284669;28;20422;-80
2023/04/23 13:14:09;;;;;;;2.08;1.50;;;;;;;;;;8287033;28;20119;-80
2023/04/23 13:18:09;;;;;;;2.28;1.20;;;;;;;;;;8281683;28;20782;-80
2023/04/23 13:22:10;;;;;;;1.30;1.20;;;;;;;;;;8286924;28;20017;-80
2023/04/23 13:26:11;;;;;;;2.53;1.20;;;;;;;;;;8288532;28;20017;-80
2023/04/23 13:30:12;;;;;;;6.57;1.40;;;;;;;;;;8283005;28;20156;-81
2023/04/23 13:34:12;;;;;;;1.73;1.30;;;;;;;;;;8284781;28;20025;-80
2023/04/23 13:38:12;;;;;;;2.72;1.25;;;;;;;;;;8290526;28;20017;-81
2023/04/23 13:42:12;;;;;;;2.95;0.93;;;;;;;;;;8281246;28;20025;-80
2023/04/23 13:46:13;;;;;;;1.55;1.00;;;;;;;;;;8285893;28;20032;-80
2023/04/23 13:50:13;;;;;;;1.07;1.00;;;;;;;;;;8285139;28;20110;-80
2023/04/23 13:54:14;;;;;;;0.82;0.82;;;;;;;;;;8282055;28;20049;-80
2023/04/23 13:58:14;;;;;;;1.83;1.17;;;;;;;;;;8285711;28;20111;-80
2023/04/23 14:02:15;;;;;;;1.13;1.00;;;;;;;;;;8285421;28;20072;-80
2023/04/23 14:06:15;;;;;;;1.40;0.90;;;;;;;;;;8290325;28;20132;-80
2023/04/23 14:10:15;;;;;;;3.33;1.60;;;;;;;;;;8288867;28;20283;-80
2023/04/23 14:14:16;;;;;;;1.00;0.90;;;;;;;;;;8289497;28;20036;-80
2023/04/23 14:18:17;;;;;;;1.25;1.00;;;;;;;;;;8281608;28;20029;-80
2023/04/23 14:22:17;;;;;;;1.83;1.10;;;;;;;;;;8286011;28;20025;-80
2023/04/23 14:26:25;;;;;;;2.03;1.30;;;;;;;;;;8287637;28;20044;-80
2023/04/23 14:30:26;;;;;;;1.60;1.33;;;;;;;;;;8287525;28;20052;-80
2023/04/23 14:34:27;;;;;;;1.65;1.05;;;;;;;;;;8282136;28;20029;-79
2023/04/23 14:38:27;;;;;;;3.42;2.00;;;;;;;;;;8282283;28;20036;-79
2023/04/23 14:42:27;;;;;;;2.73;1.60;;;;;;;;;;8288788;28;20867;-79
2023/04/23 14:46:28;;;;;;;2.33;1.80;;;;;;;;;;8284960;28;20292;-79
2023/04/23 14:50:28;;;;;;;3.85;2.00;;;;;;;;;;8282688;28;20104;-76
2023/04/23 14:54:28;;;;;;;1.93;1.53;;;;;;;;;;8284714;28;20029;-82
2023/04/23 14:58:28;;;;;;;3.13;1.73;;;;;;;;;;8283139;28;20110;-83
2023/04/23 15:02:29;;;;;;;2.42;1.75;;;;;;;;;;8282766;28;20030;-79
2023/04/23 15:06:29;;;;;;;3.58;2.03;;;;;;;;;;8279487;28;20026;-79
2023/04/23 15:10:30;;;;;;;1.55;1.40;;;;;;;;;;8274954;28;20029;-77
2023/04/23 15:14:31;;;;;;;5.20;1.70;;;;;;;;;;8278576;28;20025;-78
2023/04/23 15:18:32;;;;;;;2.50;1.30;;;;;;;;;;8277371;28;20035;-78
2023/04/23 15:22:32;;;;;;;1.42;1.20;;;;;;;;;;8280075;28;20128;-81
2023/04/23 15:26:33;;;;;;;7.70;3.23;;;;;;;;;;8279124;28;20067;-76
2023/04/23 15:30:33;;;;;;;3.50;1.35;;;;;;;;;;8280777;28;20037;-81
2023/04/23 15:34:35;;;;;;;1.10;1.00;;;;;;;;;;8282213;28;20025;-81
2023/04/23 15:38:35;;;;;;;1.77;1.02;;;;;;;;;;8277840;28;20022;-77
2023/04/23 15:42:36;;;;;;;2.20;1.00;;;;;;;;;;8294861;28;20029;-76
2023/04/23 15:46:36;;;;;;;1.90;1.23;;;;;;;;;;8280726;28;20724;-76
2023/04/23 15:50:36;;;;;;;2.42;0.93;;;;;;;;;;8283389;28;20055;-76
2023/04/23 15:54:37;;;;;;;0.80;0.70;;;;;;;;;;8282230;28;20026;-78
2023/04/23 15:58:37;;;;;;;2.70;0.90;;;;;;;;;;8283736;28;21120;-79
2023/04/23 16:02:37;;;;;;;1.50;1.00;;;;;;;;;;8282953;28;20029;-77
2023/04/23 16:06:38;;;;;;;1.88;0.80;;;;;;;;;;8280217;28;20032;-79
2023/04/23 16:10:38;;;;;;;1.58;0.90;;;;;;;;;;8272571;28;20037;-77
2023/04/23 16:14:39;;;;;;;1.25;1.00;;;;;;;;;;8279761;28;20473;-77
2023/04/23 16:18:39;;;;;;;1.10;1.00;;;;;;;;;;8272738;28;20685;-77
2023/04/23 16:22:39;;;;;;;1.50;0.88;;;;;;;;;;8280065;28;20818;-77
2023/04/23 16:26:40;;;;;;;0.80;0.80;;;;;;;;;;8278604;28;20111;-73
2023/04/23 16:30:40;;;;;;;1.27;0.82;;;;;;;;;;8279326;28;20056;-73
2023/04/23 16:34:41;;;;;;;2.97;0.80;;;;;;;;;;8276152;28;20030;-74
2023/04/23 16:38:44;;;;;;;1.02;0.75;;;;;;;;;;8281132;28;20026;-73
2023/04/23 16:42:47;;;;;;;11.38;6.63;;;;;;;;;;8279405;28;21036;-74
2023/04/23 16:46:47;;;;;;;4.10;1.50;;;;;;;;;;8281005;28;20030;-74
2023/04/23 16:50:47;;;;;;;1.02;0.80;;;;;;;;;;8278930;28;20879;-74
2023/04/23 16:54:48;;;;;;;0.75;0.75;;;;;;;;;;8283002;28;20022;-74
2023/04/23 16:58:48;;;;;;;1.30;0.70;;;;;;;;;;8278342;28;20024;-73
2023/04/23 17:02:48;;;;;;;0.73;0.70;;;;;;;;;;8280561;28;20071;-74
2023/04/23 17:06:49;;;;;;;0.60;0.60;;;;;;;;;;8279294;28;20025;-73
2023/04/23 17:10:51;;;;;;;1.25;0.98;;;;;;;;;;8278144;28;20710;-74
2023/04/23 17:14:51;;;;;;;1.38;0.70;;;;;;;;;;8276446;28;20501;-74
2023/04/23 17:18:54;;;;;;;1.83;0.70;;;;;;;;;;8276927;28;20041;-73
2023/04/23 17:22:54;;;;;;;0.70;0.70;;;;;;;;;;8276915;28;20021;-74
2023/04/23 17:26:55;;;;;;;1.05;0.70;;;;;;;;;;8278638;28;20128;-74
2023/04/23 17:30:55;;;;;;;0.98;0.60;;;;;;;;;;8274638;28;20041;-74
2023/04/23 17:34:56;;;;;;;4.07;0.70;;;;;;;;;;8277695;28;20091;-74
2023/04/23 17:38:56;;;;;;;1.95;0.70;;;;;;;;;;8277378;28;20017;-74
2023/04/23 17:42:56;;;;;;;0.85;0.60;;;;;;;;;;8274704;28;20026;-74
2023/04/23 17:46:56;;;;;;;0.70;0.70;;;;;;;;;;8276546;28;20041;-74
2023/04/23 17:50:57;;;;;;;0.85;0.75;;;;;;;;;;8275549;28;20577;-73
2023/04/23 17:54:57;;;;;;;2.45;0.70;;;;;;;;;;8277757;28;20029;-74
2023/04/23 17:58:57;;;;;;;2.53;0.55;;;;;;;;;;8270899;28;20052;-72
2023/04/23 18:02:57;;;;;;;1.83;0.75;;;;;;;;;;8277780;28;20071;-72
2023/04/23 18:06:58;;;;;;;0.88;0.60;;;;;;;;;;8277822;28;20033;-72
2023/04/23 18:10:58;;;;;;;1.30;0.65;;;;;;;;;;8273071;28;20108;-73
2023/04/23 18:15:00;;;;;;;2.05;0.93;;;;;;;;;;8272137;28;20026;-73
2023/04/23 18:19:00;;;;;;;2.15;0.70;;;;;;;;;;8275121;28;20041;-73
2023/04/23 18:23:00;;;;;;;1.37;0.90;;;;;;;;;;8278230;28;20026;-73
2023/04/23 18:27:00;;;;;;;1.25;0.90;;;;;;;;;;8274708;28;20052;-73
2023/04/23 18:31:01;;;;;;;0.70;0.70;;;;;;;;;;8276129;28;20041;-73
2023/04/23 18:35:01;;;;;;;2.25;0.90;;;;;;;;;;8274387;28;20520;-73
2023/04/23 18:39:02;;;;;;;1.02;0.85;;;;;;;;;;8278769;28;20028;-73
2023/04/23 18:43:02;;;;;;;1.15;0.77;;;;;;;;;;8279102;28;20030;-73
2023/04/23 18:47:03;;;;;;;1.00;0.88;;;;;;;;;;8285443;28;20152;-73
2023/04/23 18:51:04;;;;;;;2.05;1.08;;;;;;;;;;8284340;28;20664;-73
2023/04/23 18:55:04;;;;;;;1.25;0.90;;;;;;;;;;8285614;28;20530;-73
2023/04/23 18:59:05;;;;;;;0.85;0.70;;;;;;;;;;8283516;28;20056;-73
2023/04/23 19:03:05;;;;;;;2.05;1.10;;;;;;;;;;8282875;28;20033;-73
2023/04/23 19:07:06;;;;;;;0.70;0.70;;;;;;;;;;8283325;28;20029;-72
2023/04/23 19:11:06;;;;;;;1.02;0.70;;;;;;;;;;8287244;28;20021;-74
2023/04/23 19:15:07;;;;;;;2.50;0.70;;;;;;;;;;8281729;28;20894;-74
2023/04/23 19:19:07;;;;;;;1.30;0.70;;;;;;;;;;8279650;28;20021;-73
2023/04/23 19:23:08;;;;;;;1.73;0.67;;;;;;;;;;8286631;28;20025;-75
2023/04/23 19:27:08;;;;;;;0.70;0.55;;;;;;;;;;8280110;28;20025;-75
2023/04/23 19:31:08;;;;;;;1.27;0.60;;;;;;;;;;8281762;28;20750;-73
2023/04/23 19:35:09;;;;;;;0.82;0.45;;;;;;;;;;8282406;28;20053;-74
2023/04/23 19:39:09;;;;;;;0.57;0.55;;;;;;;;;;8284540;28;20022;-74
2023/04/23 19:43:10;;;;;;;0.50;0.50;;;;;;;;;;8281710;28;20026;-74
2023/04/23 19:47:10;;;;;;;1.17;0.60;;;;;;;;;;8288028;28;20041;-74
2023/04/23 19:51:10;;;;;;;1.90;0.60;;;;;;;;;;8283544;28;20025;-74
2023/04/23 19:55:11;;;;;;;0.75;0.60;;;;;;;;;;8294249;28;20060;-74
2023/04/23 19:59:19;;;;;;;0.95;0.70;;;;;;;;;;8291139;28;20426;-74
2023/04/23 20:03:19;;;;;;;1.17;0.60;;;;;;;;;;8282019;28;20643;-74
2023/04/23 20:07:20;;;;;;;1.17;0.70;;;;;;;;;;8284303;28;20025;-75
2023/04/23 20:11:20;;;;;;;1.20;0.73;;;;;;;;;;8276915;28;20060;-74
2023/04/23 20:15:23;;;;;;;1.58;0.90;;;;;;;;;;8281261;28;21007;-74
2023/04/23 20:19:30;;;;;;;1.10;0.60;;;;;;;;;;8284203;28;20044;-74
2023/04/23 20:23:30;;;;;;;2.22;0.75;;;;;;;;;;8282790;28;21321;-74
2023/04/23 20:27:30;;;;;;;1.35;0.80;;;;;;;;;;8287150;28;20052;-75
2023/04/23 20:31:32;;;;;;;1.85;0.77;;;;;;;;;;8279677;28;20494;-74
2023/04/23 20:35:34;;;;;;;1.02;0.80;;;;;;;;;;8282537;28;20148;-74
2023/04/23 20:39:37;;;;;;;2.25;0.68;;;;;;;;;;8280029;28;20474;-73
2023/04/23 20:43:38;;;;;;;1.10;0.90;;;;;;;;;;8296360;28;20038;-74
2023/04/23 20:47:38;;;;;;;1.50;0.80;;;;;;;;;;8282931;28;20657;-75
2023/04/23 20:51:39;;;;;;;0.70;0.70;;;;;;;;;;8282102;28;20930;-74
2023/04/23 20:55:40;;;;;;;1.55;0.70;;;;;;;;;;8294619;28;20607;-75
2023/04/23 20:59:41;;;;;;;0.80;0.80;;;;;;;;;;8296063;28;20043;-75
2023/04/23 21:03:41;;;;;;;1.07;0.70;;;;;;;;;;8283495;28;20029;-75
2023/04/23 21:07:43;;;;;;;1.20;0.70;;;;;;;;;;8282136;28;20272;-75
2023/04/23 21:11:43;;;;;;;1.17;0.70;;;;;;;;;;8286923;28;20033;-74
2023/04/23 21:15:43;;;;;;;2.33;0.85;;;;;;;;;;8280511;28;21151;-74
2023/04/23 21:19:43;;;;;;;0.90;0.80;;;;;;;;;;8284415;28;20025;-74
2023/04/23 21:23:45;;;;;;;1.52;0.80;;;;;;;;;;8282620;28;20021;-75
2023/04/23 21:27:47;;;;;;;0.95;0.73;;;;;;;;;;8281165;28;20036;-74
2023/04/23 21:31:49;;;;;;;1.90;0.80;;;;;;;;;;8283454;28;20064;-74
2023/04/23 21:35:50;;;;;;;1.60;1.00;;;;;;;;;;8283429;28;20033;-75
2023/04/23 21:39:50;;;;;;;2.47;0.80;;;;;;;;;;8281614;28;20032;-74
2023/04/23 21:43:50;;;;;;;1.10;0.80;;;;;;;;;;8277764;28;20108;-74
2023/04/23 21:47:51;;;;;;;1.13;0.70;;;;;;;;;;8278054;28;20037;-74
2023/04/23 21:51:53;;;;;;;0.68;0.68;;;;;;;;;;8282314;28;20041;-74
2023/04/23 21:55:53;;;;;;;0.73;0.68;;;;;;;;;;8277988;28;20751;-74
2023/04/23 21:59:53;;;;;;;2.83;0.90;;;;;;;;;;8279905;28;20088;-74
2023/04/23 22:03:53;;;;;;;0.90;0.70;;;;;;;;;;8281465;28;20037;-74
2023/04/23 22:07:55;;;;;;;2.58;0.85;;;;;;;;;;8283375;28;20021;-74
2023/04/23 22:11:56;;;;;;;1.80;0.80;;;;;;;;;;8281795;28;20033;-74
2023/04/23 22:15:56;;;;;;;1.63;0.70;;;;;;;;;;8280574;28;20121;-74
2023/04/23 22:19:56;;;;;;;1.00;0.80;;;;;;;;;;8283860;28;20030;-74
2023/04/23 22:23:57;;;;;;;1.58;0.80;;;;;;;;;;8288226;28;20040;-74
2023/04/23 22:27:57;;;;;;;4.63;0.97;;;;;;;;;;8287776;28;20025;-74
2023/04/23 22:31:57;;;;;;;1.80;0.80;;;;;;;;;;8288689;28;20532;-75
2023/04/23 22:35:58;;;;;;;2.72;0.80;;;;;;;;;;8285674;28;20111;-74
2023/04/23 22:39:59;;;;;;;1.65;0.90;;;;;;;;;;8285425;28;20025;-74
2023/04/23 22:43:59;;;;;;;1.60;1.02;;;;;;;;;;8288785;28;20017;-74
2023/04/23 22:47:59;;;;;;;1.95;0.85;;;;;;;;;;8285748;28;20041;-74
2023/04/23 22:52:00;;;;;;;1.17;0.70;;;;;;;;;;8291460;28;20190;-74
2023/04/23 22:56:00;;;;;;;2.63;0.80;;;;;;;;;;8280874;28;20500;-74
2023/04/23 23:00:01;;;;;;;0.80;0.80;;;;;;;;;;8284028;28;20044;-74
2023/04/23 23:04:01;;;;;;;1.60;0.90;;;;;;;;;;8286423;28;20041;-74
2023/04/23 23:08:01;;;;;;;2.15;0.80;;;;;;;;;;8285845;28;20330;-74
2023/04/23 23:12:02;;;;;;;1.10;0.70;;;;;;;;;;8288884;28;20021;-75
2023/04/23 23:16:04;;;;;;;1.67;0.82;;;;;;;;;;8287840;28;20033;-75
2023/04/23 23:20:08;;;;;;;6.25;1.27;;;;;;;;;;8286136;28;20144;-74
2023/04/23 23:24:08;;;;;;;0.63;0.60;;;;;;;;;;8288180;28;20033;-75
2023/04/23 23:28:08;;;;;;;1.63;0.70;;;;;;;;;;8287963;28;20052;-74
2023/04/23 23:32:08;;;;;;;1.08;0.80;;;;;;;;;;8283984;28;20038;-74
2023/04/23 23:36:09;;;;;;;1.27;0.70;;;;;;;;;;8286086;28;20097;-74
2023/04/23 23:40:09;;;;;;;0.80;0.80;;;;;;;;;;8285332;28;20021;-75
2023/04/23 23:44:09;;;;;;;1.52;0.70;;;;;;;;;;8287975;28;20083;-75
2023/04/23 23:48:10;;;;;;;2.13;0.70;;;;;;;;;;8288906;28;20029;-74
2023/04/23 23:52:10;;;;;;;1.00;0.70;;;;;;;;;;8285979;28;20036;-74
2023/04/23 23:56:10;;;;;;;1.45;0.85;;;;;;;;;;8287933;28;20091;-75
